Time;durP1;ratioP1;P1;durP2;ratioP2;P2;SDS_P1;SDS_P2;PMS_P1;PMS_P2;Temp;Humidity;BMP_temperature;BMP_pressure;BME280_temperature;BME280_humidity;BME280_pressure;Samples;Min_cycle;Max_cycle;Signal;HPM_P1;HPM_P2
2022/09/25 00:00:18;;;;;;;4.55;1.58;;;;;;;;;;5010571;28;20042;-70
2022/09/25 00:02:44;;;;;;;3.13;1.50;;;;;;;;;;5009325;28;20501;-71
2022/09/25 00:05:10;;;;;;;9.60;2.05;;;;;;;;;;5000383;28;20044;-71
2022/09/25 00:07:36;;;;;;;4.78;1.63;;;;;;;;;;5008737;28;20077;-71
2022/09/25 00:10:02;;;;;;;5.75;2.03;;;;;;;;;;5010064;28;20042;-71
2022/09/25 00:12:28;;;;;;;5.13;1.65;;;;;;;;;;4995724;28;20034;-70
2022/09/25 00:14:54;;;;;;;6.47;1.80;;;;;;;;;;5001118;28;20072;-71
2022/09/25 00:17:20;;;;;;;4.75;1.30;;;;;;;;;;5010261;28;20169;-70
2022/09/25 00:19:49;;;;;;;3.85;1.70;;;;;;;;;;5006744;28;20481;-71
2022/09/25 00:22:16;;;;;;;3.40;1.52;;;;;;;;;;5014974;28;20048;-72
2022/09/25 00:24:43;;;;;;;9.43;1.40;;;;;;;;;;5009386;28;20029;-70
2022/09/25 00:27:09;;;;;;;8.20;1.77;;;;;;;;;;5001037;28;20042;-70
2022/09/25 00:29:38;;;;;;;5.90;1.80;;;;;;;;;;5016082;28;20033;-70
2022/09/25 00:32:06;;;;;;;5.95;1.50;;;;;;;;;;5002242;28;20054;-70
2022/09/25 00:34:32;;;;;;;14.55;2.92;;;;;;;;;;5009559;28;20069;-70
2022/09/25 00:36:58;;;;;;;2.47;1.15;;;;;;;;;;5010167;28;20112;-70
2022/09/25 00:39:24;;;;;;;9.50;1.77;;;;;;;;;;5021574;28;20529;-71
2022/09/25 00:41:51;;;;;;;6.15;1.35;;;;;;;;;;5019998;28;20062;-73
2022/09/25 00:44:57;;;;;;;5.43;1.30;;;9.20;99.90;;;;;;5012481;28;20481;-71
2022/09/25 00:47:46;;;;;;;4.25;1.50;;;;;;;;;;4994743;28;20025;-71
2022/09/25 00:50:24;;;;;;;5.75;1.95;;;;;;;;;;5013148;28;20034;-71
2022/09/25 00:52:53;;;;;;;6.20;1.70;;;;;;;;;;5016581;28;20038;-70
2022/09/25 00:55:19;;;;;;;4.40;1.40;;;;;;;;;;4994588;28;20184;-72
2022/09/25 00:57:48;;;;;;;8.70;2.40;;;;;;;;;;5007674;28;20042;-70
2022/09/25 01:00:14;;;;;;;7.50;1.25;;;;;;;;;;4997337;28;20527;-70
2022/09/25 01:02:45;;;;;;;5.93;1.60;;;;;;;;;;4994762;28;20034;-71
2022/09/25 01:05:13;;;;;;;8.85;2.15;;;;;;;;;;5012516;28;20041;-70
2022/09/25 01:07:41;;;;;;;3.38;1.10;;;;;;;;;;5010785;28;20039;-72
2022/09/25 01:10:08;;;;;;;7.68;1.58;;;;;;;;;;5012590;28;20105;-71
2022/09/25 01:12:39;;;;;;;6.32;1.50;;;;;;;;;;5003168;28;20046;-72
2022/09/25 01:15:06;;;;;;;6.18;1.50;;;;;;;;;;5011873;28;20034;-71
2022/09/25 01:17:33;;;;;;;3.92;1.30;;;;;;;;;;5009486;28;20030;-71
2022/09/25 01:20:11;;;;;;;5.80;1.30;;;;;;;;;;5013379;28;20034;-71
2022/09/25 01:22:44;;;;;;;7.82;1.63;;;;;;;;;;5009888;28;20120;-71
2022/09/25 01:25:22;;;;;;;2.25;1.17;;;;;;;;;;5012844;28;20497;-71
2022/09/25 01:28:10;;;;;;;4.13;1.58;;;;;;;;;;5012769;28;20033;-71
2022/09/25 01:30:40;;;;;;;4.35;1.10;;;;;;;;;;5012068;28;20449;-70
2022/09/25 01:33:29;;;;;;;6.47;1.70;;;;;;;;;;4988737;28;20099;-70
2022/09/25 01:36:00;;;;;;;4.57;1.10;;;;;;;;;;4978431;28;20038;-70
2022/09/25 01:38:30;;;;;;;4.80;1.42;;;;;;;;;;4993706;28;20245;-73
2022/09/25 01:41:00;;;;;;;9.90;1.05;;;;;;;;;;4988619;28;20034;-70
2022/09/25 01:43:44;;;;;;;4.50;1.20;;;;;;;;;;4970254;28;20329;-70
2022/09/25 01:46:20;;;;;;;4.88;1.15;;;;;;;;;;4992886;28;20037;-70
2022/09/25 01:48:48;;;;;;;1.98;1.20;;;;;;;;;;4982914;28;20073;-72
2022/09/25 01:51:20;;;;;;;3.85;1.27;;;;;;;;;;4995199;28;20433;-71
2022/09/25 01:53:50;;;;;;;4.97;1.77;;;;;;;;;;4989736;28;20517;-70
2022/09/25 01:56:24;;;;;;;9.38;2.15;;;;;;;;;;5005234;28;20034;-70
2022/09/25 01:58:52;;;;;;;6.20;1.35;;;;;;;;;;4991585;28;20489;-70
2022/09/25 02:01:39;;;;;;;6.25;1.30;;;;;;;;;;4990386;28;20386;-70
2022/09/25 02:04:12;;;;;;;6.93;1.17;;;;;;;;;;4974304;28;20045;-73
2022/09/25 02:06:42;;;;;;;3.03;1.20;;;;;;;;;;5013313;28;20030;-70
2022/09/25 02:09:15;;;;;;;1.83;1.30;;;;;;;;;;4992185;28;20371;-70
2022/09/25 02:11:53;;;;;;;6.63;1.42;;;;;;;;;;5005265;28;20034;-70
2022/09/25 02:14:19;;;;;;;7.10;1.45;;;;;;;;;;4992660;28;20050;-71
2022/09/25 02:16:47;;;;;;;8.43;1.30;;;;;;;;;;4992999;28;20034;-70
2022/09/25 02:22:22;;;;;;;9.40;2.08;;;;;;;;;;4986816;28;20049;-71
2022/09/25 02:24:48;;;;;;;7.18;1.73;;;;;;;;;;4983553;28;20042;-71
2022/09/25 02:27:14;;;;;;;5.70;2.10;;;;;;;;;;5008693;28;20018;-71
2022/09/25 02:29:41;;;;;;;13.68;3.22;;;;;;;;;;4992548;28;20474;-71
2022/09/25 02:32:18;;;;;;;8.75;2.30;;;;;;;;;;5001551;28;20038;-70
2022/09/25 02:34:44;;;;;;;11.02;1.83;;;;;;;;;;5009342;28;20069;-72
2022/09/25 02:37:13;;;;;;;3.08;1.27;;;;;;;;;;5010429;28;20029;-71
2022/09/25 02:39:40;;;;;;;9.80;2.80;;;;;;;;;;5014503;28;20487;-71
2022/09/25 02:42:25;;;;;;;5.07;1.77;;;;;;;;;;5011009;28;20070;-72
2022/09/25 02:45:11;;;;;;;3.85;1.58;;;;;;;;;;5017699;28;20112;-70
2022/09/25 02:47:37;;;;;;;2.33;1.27;;;;;;;;;;5015992;28;20030;-71
2022/09/25 02:50:06;;;;;;;4.43;1.48;;;;;;;;;;5020853;28;20158;-71
2022/09/25 02:52:38;;;;;;;4.03;1.40;;;;;;;;;;5008684;28;20101;-70
2022/09/25 02:55:08;;;;;;;3.95;1.50;;;;;;;;;;5011121;28;20025;-70
2022/09/25 02:57:34;;;;;;;7.50;1.45;;;;;;;;;;5007520;28;20034;-72
2022/09/25 03:00:03;;;;;;;4.88;1.30;;;;;;;;;;5009383;28;20055;-70
2022/09/25 03:02:29;;;;;;;7.47;1.50;;;;;;;;;;5010346;28;20037;-71
2022/09/25 03:04:56;;;;;;;4.72;1.65;;;;;;;;;;5009738;28;20038;-70
2022/09/25 03:07:22;;;;;;;3.50;1.27;;;;;;;;;;5007550;28;20034;-70
2022/09/25 03:09:49;;;;;;;6.07;1.33;;;;;;;;;;5011685;28;20049;-70
2022/09/25 03:12:16;;;;;;;5.47;1.50;;;;;;;;;;5014361;28;20021;-70
2022/09/25 03:14:42;;;;;;;3.45;1.38;;;;;;;;;;5023093;28;20077;-70
2022/09/25 03:17:09;;;;;;;5.35;1.35;;;;;;;;;;5006411;28;20030;-71
2022/09/25 03:19:35;;;;;;;3.35;1.35;;;;;;;;;;5004730;28;20390;-71
2022/09/25 03:22:01;;;;;;;3.90;1.60;;;;;;;;;;5002191;28;20038;-73
2022/09/25 03:24:27;;;;;;;3.47;1.30;;;;;;;;;;5005606;28;20042;-70
2022/09/25 03:26:53;;;;;;;5.97;1.42;;;;;;;;;;5021546;28;20176;-71
2022/09/25 03:29:20;;;;;;;4.95;1.27;;;;;;;;;;5011006;28;20032;-70
2022/09/25 03:31:46;;;;;;;6.78;1.67;;;;;;;;;;4992702;28;20057;-71
2022/09/25 03:34:13;;;;;;;9.20;2.13;;;;;;;;;;5016597;28;20034;-72
2022/09/25 03:36:40;;;;;;;4.97;1.63;;;;;;;;;;5010594;28;20385;-70
2022/09/25 03:39:09;;;;;;;5.18;1.63;;;;;;;;;;5000171;28;20034;-72
2022/09/25 03:41:35;;;;;;;6.63;1.80;;;;;;;;;;5007761;28;20099;-72
2022/09/25 03:44:01;;;;;;;3.88;1.58;;;;;;;;;;5010052;28;20033;-71
2022/09/25 03:46:32;;;;;;;9.30;1.92;;;;;;;;;;4993062;28;20380;-72
2022/09/25 03:48:58;;;;;;;4.57;1.45;;;;;;;;;;5006928;28;20035;-72
2022/09/25 03:51:25;;;;;;;5.55;1.58;;;;;;;;;;5010852;28;20034;-71
2022/09/25 03:53:52;;;;;;;4.70;1.50;;;;;;;;;;5006819;28;20482;-73
2022/09/25 03:56:19;;;;;;;3.97;1.63;;;;;;;;;;5006934;28;20032;-71
2022/09/25 03:58:46;;;;;;;6.68;0.82;;;;;;;;;;4990191;28;20120;-72
2022/09/25 04:01:12;;;;;;;4.47;0.90;;;;;;;;;;5010326;28;20033;-72
2022/09/25 04:03:39;;;;;;;4.47;0.90;;;;;;;;;;5008676;28;20057;-73
2022/09/25 04:06:05;;;;;;;8.80;2.00;;;;;;;;;;5008912;28;20029;-72
2022/09/25 04:08:32;;;;;;;9.43;1.20;;;;;;;;;;4993533;28;20373;-72
2022/09/25 04:10:58;;;;;;;5.97;1.45;;;;;;;;;;5008013;28;20038;-73
2022/09/25 04:13:25;;;;;;;4.30;1.48;;;;;;;;;;4994035;28;20069;-73
2022/09/25 04:15:52;;;;;;;6.43;0.82;;;;;;;;;;5013110;28;20052;-73
2022/09/25 04:18:18;;;;;;;2.15;0.55;;;;;;;;;;5010597;28;20052;-72
2022/09/25 04:20:44;;;;;;;5.60;0.98;;;;;;;;;;5013245;28;20028;-72
2022/09/25 04:23:10;;;;;;;5.18;0.98;;;;;;;;;;5005474;28;20046;-73
2022/09/25 04:25:36;;;;;;;5.63;1.25;;;;;;;;;;5017318;28;20038;-72
2022/09/25 04:28:04;;;;;;;3.45;0.80;;;;;;;;;;5012626;28;20038;-73
2022/09/25 04:30:30;;;;;;;8.13;1.00;;;;;;;;;;5007361;28;20497;-73
2022/09/25 04:35:41;;;;;;;2.70;0.70;;;;;;;;;;5018398;28;20069;-73
2022/09/25 04:38:08;;;;;;;3.47;0.77;;;;;;;;;;5028548;28;20030;-73
2022/09/25 04:40:34;;;;;;;3.70;0.75;;;;;;;;;;5013338;28;20462;-73
2022/09/25 04:43:01;;;;;;;4.07;0.90;;;;;;;;;;4991358;28;20050;-73
2022/09/25 04:45:28;;;;;;;6.07;1.20;;;;;;;;;;5013244;28;20053;-73
2022/09/25 04:47:54;;;;;;;4.75;1.40;;;;;;;;;;5010740;28;20093;-73
2022/09/25 04:50:21;;;;;;;2.33;0.95;;;;;;;;;;5014700;28;20057;-72
2022/09/25 04:52:48;;;;;;;2.65;0.85;;;;;;;;;;5010875;28;20041;-71
2022/09/25 04:55:15;;;;;;;3.80;0.98;;;;;;;;;;5010695;28;20044;-72
2022/09/25 04:57:41;;;;;;;5.07;1.00;;;;;;;;;;5012685;28;20026;-72
2022/09/25 05:00:08;;;;;;;7.72;1.63;;;;;;;;;;5011020;28;20029;-72
2022/09/25 05:02:34;;;;;;;11.25;2.78;;;;;;;;;;5002001;28;20018;-72
2022/09/25 05:05:00;;;;;;;5.30;1.48;;;;;;;;;;5007051;28;20489;-72
2022/09/25 05:07:26;;;;;;;15.63;5.72;;;;;;;;;;5017689;28;22121;-71
2022/09/25 05:09:52;;;;;;;10.35;1.73;;;;;;;;;;5009927;28;20169;-72
2022/09/25 05:12:19;;;;;;;5.57;1.02;;;;;;;;;;4995885;28;20389;-71
2022/09/25 05:14:45;;;;;;;6.82;1.63;;;;;;;;;;5025166;28;20053;-71
2022/09/25 05:17:11;;;;;;;6.50;0.95;;;;;;;;;;4995577;28;20058;-71
2022/09/25 05:19:37;;;;;;;5.25;1.63;;;;;;;;;;5013910;28;20046;-72
2022/09/25 05:22:03;;;;;;;3.50;1.10;;;;;;;;;;5007206;28;20168;-72
2022/09/25 05:24:30;;;;;;;6.43;1.00;;;;;;;;;;5012756;28;20037;-71
2022/09/25 05:26:56;;;;;;;6.47;1.77;;;;;;;;;;5009641;28;20104;-71
2022/09/25 05:29:22;;;;;;;6.70;1.10;;;;;;;;;;5009473;28;20389;-71
2022/09/25 05:31:48;;;;;;;7.03;1.67;;;;;;;;;;5005631;28;20049;-73
2022/09/25 05:34:15;;;;;;;152.57;93.68;;;;;;;;;;4996544;28;20049;-71
2022/09/25 05:36:41;;;;;;;9.05;5.35;;;;;;;;;;5019141;28;20068;-71
2022/09/25 05:39:10;;;;;;;7.95;3.75;;;;;;;;;;5011434;28;20034;-70
2022/09/25 05:41:37;;;;;;;2.85;1.67;;;;;;;;;;5008411;28;20776;-71
2022/09/25 05:44:08;;;;;;;5.22;1.73;;;;;;;;;;5014064;28;20034;-72
2022/09/25 05:46:37;;;;;;;6.78;1.20;;;;;;;;;;4993846;28;20120;-72
2022/09/25 05:49:04;;;;;;;4.68;1.45;;;;;;;;;;5008495;28;20042;-71
2022/09/25 05:51:30;;;;;;;6.70;1.33;;;;;;;;;;5011785;28;20233;-71
2022/09/25 05:53:56;;;;;;;7.35;1.13;;;;;;;;;;5021274;28;20048;-71
2022/09/25 05:56:23;;;;;;;8.40;1.35;;;;;;;;;;5011310;28;20034;-71
2022/09/25 05:58:50;;;;;;;4.93;1.73;;;;;;;;;;5009336;28;20034;-71
2022/09/25 06:01:16;;;;;;;5.05;1.05;;;;;;;;;;5011607;28;20029;-71
2022/09/25 06:03:42;;;;;;;5.05;1.10;;;;;;;;;;5016118;28;20076;-72
2022/09/25 06:06:08;;;;;;;8.80;1.50;;;;;;;;;;5005035;28;20029;-71
2022/09/25 06:08:34;;;;;;;5.10;1.67;;;;;;;;;;5004762;28;20050;-71
2022/09/25 06:11:01;;;;;;;3.70;1.80;;;;;;;;;;5009781;28;20069;-71
2022/09/25 06:13:30;;;;;;;7.82;2.60;;;;;;;;;;5006431;28;20045;-71
2022/09/25 06:15:56;;;;;;;9.32;2.17;;;;;;;;;;5010752;28;20517;-71
2022/09/25 06:18:24;;;;;;;5.13;1.80;;;;;;;;;;5022954;28;20088;-71
2022/09/25 06:20:50;;;;;;;4.03;1.75;;;;;;;;;;5014037;28;20030;-73
2022/09/25 06:23:17;;;;;;;5.97;2.60;;;;;;;;;;5015814;28;20046;-72
2022/09/25 06:25:43;;;;;;;7.60;1.58;;;;;;;;;;5015288;28;20448;-74
2022/09/25 06:28:10;;;;;;;14.48;5.78;;;;;;;;;;5011661;28;20121;-72
2022/09/25 06:30:37;;;;;;;4.55;1.55;;;;;;;;;;4991827;28;20038;-72
2022/09/25 06:33:08;;;;;;;9.95;1.60;;;;;;;;;;5011838;28;20613;-73
2022/09/25 06:35:35;;;;;;;8.00;2.72;;;;;;;;;;5006347;28;20033;-72
2022/09/25 06:38:01;;;;;;;5.55;2.00;;;;;;;;;;5011545;28;20036;-72
2022/09/25 06:40:28;;;;;;;8.82;2.65;;;;;;;;;;5006092;28;20059;-72
2022/09/25 06:42:55;;;;;;;5.95;1.60;;;;;;;;;;5009743;28;20030;-73
2022/09/25 06:45:21;;;;;;;9.05;1.40;;;;;;;;;;4983387;28;20034;-75
2022/09/25 06:47:47;;;;;;;68.88;37.22;;;;;;;;;;5011614;28;20075;-74
2022/09/25 06:50:13;;;;;;;10.15;2.22;;;;;;;;;;4988140;28;20030;-75
2022/09/25 06:52:43;;;;;;;8.75;2.10;;;;;;;;;;5009853;28;20041;-76
2022/09/25 06:55:09;;;;;;;22.55;11.68;;;;;;;;;;5002012;28;20076;-73
2022/09/25 06:57:36;;;;;;;4.03;1.52;;;;;;;;;;5008299;28;20453;-73
2022/09/25 07:00:04;;;;;;;6.03;1.20;;;;;;;;;;5003316;28;20034;-74
2022/09/25 07:05:17;;;;;;;3.38;0.90;;;;;;;;;;5005994;28;20494;-73
2022/09/25 07:07:44;;;;;;;7.97;1.00;;;;;;;;;;5001676;28;20125;-73
2022/09/25 07:10:10;;;;;;;5.10;1.52;;;;;;;;;;4994601;28;20541;-73
2022/09/25 07:12:37;;;;;;;3.90;1.05;;;;;;;;;;4994044;28;20060;-72
2022/09/25 07:15:03;;;;;;;6.90;1.13;;;;;;;;;;5023864;28;20117;-72
2022/09/25 07:17:29;;;;;;;3.63;0.70;;;;;;;;;;5013075;28;20045;-72
2022/09/25 07:19:55;;;;;;;5.30;1.20;;;;;;;;;;4992610;28;20034;-72
2022/09/25 07:22:21;;;;;;;4.72;0.77;;;;;;;;;;5006067;28;20030;-72
2022/09/25 07:24:47;;;;;;;5.95;0.90;;;;;;;;;;5007952;28;20088;-72
2022/09/25 07:27:13;;;;;;;6.25;1.25;;;;;;;;;;5004494;28;20034;-73
2022/09/25 07:29:39;;;;;;;7.30;1.20;;;;;;;;;;5012698;28;20037;-73
2022/09/25 07:32:05;;;;;;;5.18;0.90;;;;;;;;;;5007630;28;20045;-73
2022/09/25 07:34:34;;;;;;;11.00;1.42;;;;;;;;;;5007019;28;20096;-72
2022/09/25 07:37:00;;;;;;;7.13;1.38;;;;;;;;;;4994445;28;20400;-73
2022/09/25 07:39:26;;;;;;;4.60;1.70;;;;;;;;;;5003316;28;20029;-73
2022/09/25 07:41:54;;;;;;;11.27;4.70;;;;;;;;;;4986587;28;20063;-76
2022/09/25 07:44:20;;;;;;;11.23;4.75;;;;;;;;;;5006416;28;20105;-76
2022/09/25 07:46:46;;;;;;;7.00;1.23;;;;;;;;;;5014498;28;20456;-76
2022/09/25 07:49:12;;;;;;;6.72;1.40;;;;;;;;;;5012078;28;20038;-74
2022/09/25 07:51:38;;;;;;;5.25;1.13;;;;;;;;;;5007792;28;20037;-73
2022/09/25 07:54:04;;;;;;;7.53;1.50;;;;;;;;;;4989937;28;20037;-74
2022/09/25 07:56:33;;;;;;;5.30;0.80;;;;;;;;;;5006595;28;20027;-74
2022/09/25 07:58:59;;;;;;;3.45;0.90;;;;;;;;;;5008698;28;20030;-74
2022/09/25 08:01:25;;;;;;;5.97;1.50;;;;;;;;;;5007081;28;20096;-74
2022/09/25 08:03:51;;;;;;;6.40;1.40;;;;;;;;;;5005333;28;20080;-74
2022/09/25 08:06:17;;;;;;;6.70;1.05;;;;;;;;;;5008242;28;20038;-74
2022/09/25 08:08:43;;;;;;;7.45;0.82;;;;;;;;;;5010089;28;20042;-74
2022/09/25 08:11:10;;;;;;;2.58;0.68;;;;;;;;;;5004319;28;20030;-74
2022/09/25 08:13:37;;;;;;;4.95;0.80;;;;;;;;;;4999940;28;20057;-73
2022/09/25 08:16:04;;;;;;;6.25;1.05;;;;;;;;;;5007407;28;20450;-73
2022/09/25 08:18:30;;;;;;;10.73;0.98;;;;;;;;;;4988744;28;20041;-73
2022/09/25 08:21:03;;;;;;;8.30;1.30;;;;;;;;;;4993954;28;20037;-73
2022/09/25 08:23:29;;;;;;;9.82;1.15;;;;;;;;;;5007049;28;20029;-74
2022/09/25 08:25:55;;;;;;;2.63;0.70;;;;;;;;;;5010108;28;20471;-74
2022/09/25 08:28:22;;;;;;;6.13;0.90;;;;;;;;;;5003088;28;20038;-76
2022/09/25 08:30:48;;;;;;;6.22;2.25;;;;;;;;;;5007956;28;20030;-76
2022/09/25 08:33:14;;;;;;;6.13;2.83;;;;;;;;;;5019127;28;20388;-73
2022/09/25 08:35:41;;;;;;;6.28;1.10;;;;;;;;;;5003710;28;20144;-73
2022/09/25 08:38:07;;;;;;;5.50;1.48;;;;;;;;;;5000119;28;20508;-73
2022/09/25 08:40:34;;;;;;;3.72;0.70;;;;;;;;;;4993905;28;20030;-73
2022/09/25 08:43:00;;;;;;;3.25;0.80;;;;;;;;;;5006930;28;20026;-74
2022/09/25 08:51:16;;;;;;;7.95;1.42;;;;;;;;;;5004360;28;20037;-73
2022/09/25 08:53:44;;;;;;;12.10;1.83;;;;;;;;;;5001296;28;20138;-74
2022/09/25 08:56:18;;;;;;;6.15;1.08;;;;;;;;;;4992808;28;20033;-74
2022/09/25 08:58:51;;;;;;;7.05;0.75;;;;;;;;;;4993892;28;20037;-74
2022/09/25 09:01:22;;;;;;;;;;;12.40;99.90;;;;;;5012790;28;20116;-75
2022/09/25 09:04:04;;;;;;;4.75;1.13;;;;;;;;;;5013823;28;19929;-73
2022/09/25 09:06:31;;;;;;;3.40;0.73;;;;;;;;;;5007588;28;20450;-73
2022/09/25 09:09:04;;;;;;;3.10;0.43;;;;;;;;;;5012187;28;20033;-73
2022/09/25 09:11:33;;;;;;;4.60;0.80;;;;;;;;;;4991014;28;20125;-71
2022/09/25 09:14:04;;;;;;;4.82;2.22;;;;;;;;;;5017328;28;20652;-73
2022/09/25 09:16:34;;;;;;;7.60;1.95;;;;;;;;;;5020305;28;20029;-72
2022/09/25 09:19:02;;;;;;;5.43;1.48;;;;;;;;;;4989152;28;20151;-73
2022/09/25 09:21:33;;;;;;;3.65;0.82;;;;;;;;;;5010229;28;20481;-72
2022/09/25 09:24:07;;;;;;;4.82;0.80;;;;;;;;;;5009910;28;20034;-73
2022/09/25 09:26:56;;;;;;;5.57;0.77;;;;;;;;;;5011000;28;20441;-72
2022/09/25 09:29:41;;;;;;;3.00;0.75;;;;;;;;;;5008021;28;20612;-73
2022/09/25 09:32:37;;;;;;;1.95;0.47;;;;;;;;;;5012559;28;20049;-73
2022/09/25 09:35:06;;;;;;;1.40;0.30;;;;;;;;;;4991740;28;20545;-73
2022/09/25 09:37:32;;;;;;;3.08;0.57;;;;;;;;;;5006477;28;20033;-74
2022/09/25 09:40:08;;;;;;;2.42;0.40;;;;;;;;;;5019764;28;20092;-73
2022/09/25 09:42:53;;;;;;;3.22;0.50;;;;;;;;;;5012125;28;20018;-73
2022/09/25 09:45:21;;;;;;;1.52;0.28;;;;;;;;;;4991227;28;20542;-72
2022/09/25 09:48:02;;;;;;;4.63;0.80;;;;;;;;;;4985185;28;20471;-72
2022/09/25 09:50:28;;;;;;;1.98;0.50;;;;;;;;;;5002350;28;20029;-73
2022/09/25 09:52:58;;;;;;;2.42;0.40;;;;;;;;;;5011693;28;20034;-73
2022/09/25 09:55:35;;;;;;;1.50;0.50;;;;;;;;;;4999246;28;20467;-72
2022/09/25 09:58:07;;;;;;;6.03;0.80;;;;;;;;;;5007381;28;20420;-73
2022/09/25 10:00:33;;;;;;;;;;;;;;;;;;5024066;28;20110;-70
2022/09/25 10:03:02;;;;;;;2.28;0.40;;;;;;;;;;4994543;28;19909;-69
2022/09/25 10:05:31;;;;;;;4.22;0.50;;;;;;;;;;5007974;28;20099;-73
2022/09/25 10:07:57;;;;;;;4.05;2.83;;;;;;;;;;5001169;28;20087;-75
2022/09/25 10:10:30;;;;;;;6.00;1.00;;;;;;;;;;5008566;28;20030;-76
2022/09/25 10:13:00;;;;;;;5.38;1.10;;;;;;;;;;4992657;28;20044;-71
2022/09/25 10:15:29;;;;;;;3.03;0.57;;;;;;;;;;5010038;28;20513;-70
2022/09/25 10:17:57;;;;;;;3.28;0.47;;;;;;;;;;5012057;28;20030;-70
2022/09/25 10:20:24;;;;;;;1.45;0.25;;;;;;;;;;5012789;28;20030;-70
2022/09/25 10:22:52;;;;;;;3.50;0.40;;;;;;;;;;5009415;28;20030;-70
2022/09/25 10:25:37;;;;;;;1.77;0.40;;;;;;;;;;5011858;28;20059;-71
2022/09/25 10:28:29;;;;;;;5.05;0.82;;;;;;;;;;5007534;28;20071;-70
2022/09/25 10:30:57;;;;;;;4.45;0.50;;;;;;;;;;5005662;28;20046;-73
2022/09/25 10:33:27;;;;;;;3.83;0.80;;;;;;;;;;5013711;28;20521;-70
2022/09/25 10:35:53;;;;;;;2.03;0.40;;;;;;;;;;5011159;28;20052;-70
2022/09/25 10:38:31;;;;;;;3.80;0.45;;;;;;;;;;5009359;28;20469;-70
2022/09/25 10:41:18;;;;;;;2.83;0.40;;;;;;;;;;5010156;28;20060;-70
2022/09/25 10:43:55;;;;;;;5.05;0.70;;;;;;;;;;4984333;28;20528;-73
2022/09/25 10:52:09;;;;;;;5.32;3.13;;;;;;;;;;5005847;28;20032;-79
2022/09/25 10:54:36;;;;;;;2.72;0.60;;;;;;;;;;5018530;28;20408;-73
2022/09/25 10:57:14;;;;;;;3.00;0.60;;;;;;;;;;5003157;28;20501;-73
2022/09/25 10:59:40;;;;;;;2.28;0.40;;;;;;;;;;5013043;28;20038;-74
2022/09/25 11:02:13;;;;;;;3.45;0.52;;;;;;;;;;5007740;28;20034;-72
2022/09/25 11:04:42;;;;;;;2.30;0.47;;;;;;;;;;5004845;28;20030;-76
2022/09/25 11:07:16;;;;;;;2.33;0.57;;;;;;;;;;5008448;28;20026;-74
2022/09/25 11:09:43;;;;;;;6.05;2.17;;;;;;;;;;5008702;28;20026;-75
2022/09/25 11:12:19;;;;;;;5.50;1.33;;;;;;;;;;5006613;28;20045;-73
2022/09/25 11:14:54;;;;;;;3.50;0.88;;;;;;;;;;5009964;28;20428;-73
2022/09/25 11:17:53;;;;;;;5.22;1.17;;;;;;;;;;5008061;28;20033;-74
2022/09/25 11:20:21;;;;;;;2.80;1.80;;;;;;;;;;4973580;28;20081;-74
2022/09/25 11:22:55;;;;;;;4.53;0.77;;;;;;;;;;4993913;28;20769;-73
2022/09/25 11:25:45;;;;;;;2.47;0.82;;;;;;;;;;5009281;28;20093;-73
2022/09/25 11:28:30;;;;;;;10.40;1.50;;;;;;;;;;4997801;28;20032;-73
2022/09/25 11:31:02;;;;;;;3.25;0.68;;;;;;;;;;5017119;28;20246;-73
2022/09/25 11:33:44;;;;;;;4.57;1.73;;;;;;;;;;5011038;28;20928;-74
2022/09/25 11:36:15;;;;;;;4.68;1.15;;;;;;;;;;5002315;28;20049;-73
2022/09/25 11:41:39;;;;;;;5.10;0.70;;;;;;;;;;5004498;28;20386;-71
2022/09/25 11:44:26;;;;;;;2.70;0.43;;;;;;;;;;5009142;28;20164;-71
2022/09/25 11:47:00;;;;;;;2.40;0.70;;;;;;;;;;5011729;28;20022;-71
2022/09/25 11:49:33;;;;;;;4.53;1.70;;;;;;;;;;5008377;28;20034;-72
2022/09/25 11:52:00;;;;;;;;;;;;;;;;;;5011021;28;20041;-71
2022/09/25 11:54:40;;;;;;;6.20;1.80;;;;;;;;;;5006343;28;19929;-72
2022/09/25 11:57:10;;;;;;;10.50;3.92;;;;;;;;;;5011328;28;20029;-72
2022/09/25 11:59:52;;;;;;;2.92;1.10;;;;;;;;;;5011264;28;20033;-71
2022/09/25 12:02:31;;;;;;;5.65;0.80;;;;;;;;;;5011463;28;20418;-72
2022/09/25 12:05:07;;;;;;;1.20;0.40;;;;;;;;;;4997723;28;20038;-72
2022/09/25 12:08:00;;;;;;;2.85;0.45;;;;;;;;;;5006310;28;20148;-72
2022/09/25 12:10:38;;;;;;;2.67;0.60;;;;;;;;;;5001835;28;20035;-71
2022/09/25 12:13:07;;;;;;;7.47;3.30;;;;;;;;;;5001730;28;20084;-74
2022/09/25 12:15:49;;;;;;;5.57;2.40;;;;;;;;;;5010816;28;20350;-74
2022/09/25 12:18:32;;;;;;;2.92;0.93;;;;;;;;;;5011667;28;20120;-72
2022/09/25 12:21:07;;;;;;;3.15;0.50;;;;;;;;;;4989157;28;20061;-72
2022/09/25 12:23:33;;;;;;;4.18;0.88;;;;;;;;;;4998591;28;20595;-72
2022/09/25 12:26:05;;;;;;;5.82;0.60;;;;;;;;;;5010290;28;20030;-70
2022/09/25 12:28:35;;;;;;;2.70;0.80;;;;;;;;;;5006589;28;20466;-72
2022/09/25 12:31:10;;;;;;;3.72;0.45;;;;;;;;;;5008049;28;20081;-72
2022/09/25 12:33:55;;;;;;;6.63;0.60;;;;;;;;;;5017862;28;20044;-71
2022/09/25 12:36:36;;;;;;;4.45;0.65;;;;;;;;;;5003740;28;20026;-70
2022/09/25 12:39:04;;;;;;;5.18;0.60;;;;;;;;;;5016551;28;20060;-70
2022/09/25 12:41:32;;;;;;;5.55;0.73;;;;;;;;;;5006851;28;20120;-69
2022/09/25 12:44:30;;;;;;;3.75;0.57;;;18.40;99.90;;;;;;5010770;28;20160;-71
2022/09/25 12:47:20;;;;;;;5.78;0.60;;;18.10;99.90;;;;;;4962865;28;20064;-70
2022/09/25 12:49:55;;;;;;;3.05;0.50;;;;;;;;;;5019407;28;20060;-70
2022/09/25 12:52:27;;;;;;;4.40;1.02;;;;;;;;;;5014995;28;20482;-71
2022/09/25 12:54:53;;;;;;;3.17;0.40;;;;;;;;;;4992403;28;20038;-70
2022/09/25 12:57:23;;;;;;;5.50;0.80;;;;;;;;;;5023329;28;20041;-69
2022/09/25 13:00:00;;;;;;;3.30;0.57;;;;;;;;;;5003170;28;20397;-70
2022/09/25 13:02:29;;;;;;;2.67;0.50;;;;;;;;;;5013641;28;20439;-71
2022/09/25 13:05:07;;;;;;;1.83;0.30;;;;;;;;;;5010280;28;20117;-72
2022/09/25 13:07:48;;;;;;;3.90;0.65;;;;;;;;;;5030064;28;20037;-71
2022/09/25 13:10:20;;;;;;;3.70;0.20;;;;;;;;;;4995392;28;20162;-71
2022/09/25 13:12:46;;;;;;;1.90;0.47;;;;;;;;;;5011973;28;20060;-71
2022/09/25 13:15:15;;;;;;;1.90;0.40;;;;;;;;;;5006787;28;20482;-71
2022/09/25 13:17:41;;;;;;;0.63;0.20;;;;;;;;;;5006280;28;20037;-71
2022/09/25 13:20:26;;;;;;;1.63;0.30;;;;;;;;;;5006943;28;20104;-71
2022/09/25 13:22:55;;;;;;;2.88;0.40;;;;;;;;;;5023868;28;20033;-70
2022/09/25 13:25:22;;;;;;;2.25;0.50;;;;;;;;;;5010428;28;20081;-70
2022/09/25 13:27:48;;;;;;;5.50;0.60;;;;;;;;;;5025456;28;20033;-71
2022/09/25 13:30:22;;;;;;;4.53;0.40;;;;;;;;;;5015142;28;20025;-71
2022/09/25 13:32:49;;;;;;;3.95;0.70;;;;;;;;;;5012495;28;20512;-73
2022/09/25 13:35:17;;;;;;;2.60;0.20;;;;;;;;;;5000816;28;20068;-74
2022/09/25 13:37:43;;;;;;;2.92;1.10;;;;;;;;;;5008790;28;20037;-72
2022/09/25 13:43:19;;;;;;;3.90;0.52;;;;;;;;;;5018954;28;20064;-72
2022/09/25 13:45:47;;;;;;;0.77;0.20;;;;;;;;;;5012995;28;20489;-71
2022/09/25 13:48:33;;;;;;;2.67;0.65;;;;;;;;;;5017744;28;20030;-73
2022/09/25 13:51:17;;;;;;;2.50;0.52;;;;;;;;;;5018668;28;20054;-72
2022/09/25 13:54:08;;;;;;;1.65;0.30;;;19.10;99.90;;;;;;5001923;28;20471;-71
2022/09/25 13:56:40;;;;;;;3.08;0.50;;;;;;;;;;5013041;28;20034;-71
2022/09/25 13:59:12;;;;;;;3.97;0.60;;;;;;;;;;5017675;28;20057;-70
2022/09/25 14:01:42;;;;;;;4.85;0.40;;;;;;;;;;5003745;28;20027;-71
2022/09/25 14:04:11;;;;;;;3.75;0.50;;;;;;;;;;5005554;28;20030;-71
2022/09/25 14:06:40;;;;;;;3.10;1.48;;;;;;;;;;5008082;28;20129;-71
2022/09/25 14:09:09;;;;;;;8.60;0.80;;;;;;;;;;4999775;28;20026;-71
2022/09/25 14:11:36;;;;;;;4.70;1.00;;;;;;;;;;5011372;28;20050;-72
2022/09/25 14:14:16;;;;;;;0.82;0.38;;;;;;;;;;5015216;28;20037;-73
2022/09/25 14:16:49;;;;;;;2.20;0.40;;;;;;;;;;4989962;28;20504;-74
2022/09/25 14:19:23;;;;;;;2.55;0.63;;;;;;;;;;5001630;28;20469;-76
2022/09/25 14:21:50;;;;;;;5.63;1.23;;;;;;;;;;5015777;28;20025;-75
2022/09/25 14:24:17;;;;;;;4.10;0.90;;;;;;;;;;5021123;28;20037;-75
2022/09/25 14:26:44;;;;;;;2.67;1.27;;;;;;;;;;5010252;28;20025;-73
2022/09/25 14:29:18;;;;;;;2.10;0.90;;;;;;;;;;5004334;28;20104;-71
2022/09/25 14:31:47;;;;;;;4.85;0.90;;;;;;;;;;4995592;28;20120;-73
2022/09/25 14:34:43;;;;;;;2.50;0.57;;;;;;;;;;5011573;28;20095;-71
2022/09/25 14:37:15;;;;;;;1.73;0.85;;;;;;;;;;5007364;28;20073;-72
2022/09/25 14:39:41;;;;;;;4.00;0.63;;;;;;;;;;5011961;28;20022;-72
2022/09/25 14:42:32;;;;;;;2.60;1.00;;;;;;;;;;5012723;28;20140;-71
2022/09/25 14:45:11;;;;;;;3.58;0.40;;;;;;;;;;5012248;28;20429;-72
2022/09/25 14:47:43;;;;;;;4.10;0.50;;;;;;;;;;5005336;28;20029;-72
2022/09/25 14:50:18;;;;;;;2.40;0.88;;;;;;;;;;5019950;28;20481;-72
2022/09/25 14:52:44;;;;;;;1.58;0.30;;;;;;;;;;5010171;28;20061;-72
2022/09/25 14:55:14;;;;;;;1.33;0.20;;;;;;;;;;5008209;28;20080;-73
2022/09/25 14:57:40;;;;;;;7.07;1.48;;;;;;;;;;5012078;28;20504;-71
2022/09/25 15:00:08;;;;;;;3.50;0.57;;;;;;;;;;5005396;28;20104;-73
2022/09/25 15:02:42;;;;;;;4.40;1.20;;;;;;;;;;5012287;28;20029;-72
2022/09/25 15:05:18;;;;;;;3.78;0.40;;;;;;;;;;5005934;28;20061;-72
2022/09/25 15:07:46;;;;;;;2.83;0.30;;;;;;;;;;5012274;28;20033;-73
2022/09/25 15:10:23;;;;;;;4.22;0.73;;;;;;;;;;5016714;28;20029;-72
2022/09/25 15:12:50;;;;;;;1.17;0.47;;;;;;;;;;5009943;28;20186;-73
2022/09/25 15:15:17;;;;;;;1.30;0.40;;;;;;;;;;5006523;28;20029;-72
2022/09/25 15:17:48;;;;;;;6.38;0.90;;;;;;;;;;4996380;28;20022;-73
2022/09/25 15:20:31;;;;;;;5.37;0.47;;;;;;;;;;5010704;28;20169;-73
2022/09/25 15:23:05;;;;;;;2.20;1.08;;;;;;;;;;4988038;28;20030;-73
2022/09/25 15:25:33;;;;;;;1.55;0.32;;;;;;;;;;5010712;28;20038;-72